createdAt,value
2022-10-23T00:04:46.479Z,99428.50
2022-10-23T00:09:49.428Z,99432.64
2022-10-23T00:14:52.382Z,99431.38
2022-10-23T00:19:55.334Z,99433.25
2022-10-23T00:24:58.284Z,99436.73
2022-10-23T00:30:03.046Z,99445.80
2022-10-23T00:35:06.660Z,99446.05
2022-10-23T00:40:10.306Z,99453.04
2022-10-23T00:45:31.238Z,99456.96
2022-10-23T00:50:34.240Z,99461.41
2022-10-23T00:55:38.962Z,99459.81
2022-10-23T01:00:46.011Z,99463.94
2022-10-23T01:06:03.249Z,99467.34
2022-10-23T01:11:38.242Z,99472.83
2022-10-23T01:17:15.899Z,99477.84
2022-10-23T01:22:33.254Z,99485.05
2022-10-23T01:27:48.490Z,99485.31
2022-10-23T01:33:02.450Z,99489.38
2022-10-23T01:38:21.008Z,99496.63
2022-10-23T01:43:34.504Z,99500.14
2022-10-23T01:48:37.992Z,99501.44
2022-10-23T01:53:43.479Z,99499.16
2022-10-23T01:58:49.524Z,99498.06
2022-10-23T02:03:53.841Z,99500.64
2022-10-23T02:08:57.094Z,99499.29
2022-10-23T02:14:42.098Z,99503.52
2022-10-23T02:20:03.019Z,99510.63
2022-10-23T02:25:11.558Z,99514.06
2022-10-23T02:30:18.352Z,99523.34
2022-10-23T02:35:24.275Z,99535.90
2022-10-23T02:40:44.424Z,99540.84
2022-10-23T02:45:59.999Z,99539.07
2022-10-23T02:51:56.072Z,99543.02
2022-10-23T02:57:31.157Z,99549.11
2022-10-23T03:02:44.285Z,99549.69
2022-10-23T03:07:47.708Z,99547.88
2022-10-23T03:12:50.982Z,99540.83
2022-10-23T03:17:53.880Z,99541.49
2022-10-23T03:22:56.785Z,99553.33
2022-10-23T03:28:00.360Z,99557.45
2022-10-23T03:33:03.243Z,99568.79
2022-10-23T03:38:06.260Z,99572.60
2022-10-23T03:43:09.323Z,99575.27
2022-10-23T03:48:12.276Z,99581.70
2022-10-23T03:53:15.175Z,99586.55
2022-10-23T03:58:18.101Z,99592.73
2022-10-23T04:03:21.014Z,99593.23
2022-10-23T04:08:23.909Z,99598.79
2022-10-23T04:13:27.099Z,99602.27
2022-10-23T04:18:30.155Z,99604.04
2022-10-23T04:23:33.313Z,99606.32
2022-10-23T04:28:36.257Z,99610.84
2022-10-23T04:33:39.166Z,99618.02
2022-10-23T04:38:42.118Z,99621.79
2022-10-23T04:43:45.045Z,99623.66
2022-10-23T04:48:47.981Z,99627.35
2022-10-23T04:53:50.871Z,99628.75
2022-10-23T04:58:54.929Z,99630.80
2022-10-23T05:03:57.886Z,99632.09
2022-10-23T05:09:00.803Z,99636.48
2022-10-23T05:14:03.718Z,99638.87
2022-10-23T05:19:10.187Z,99642.33
2022-10-23T05:24:13.102Z,99645.20
2022-10-23T05:29:15.984Z,99652.36
2022-10-23T05:34:23.118Z,99661.80
2022-10-23T05:39:26.589Z,99662.80
2022-10-23T05:44:29.331Z,99662.65
2022-10-23T05:49:32.284Z,99663.75
2022-10-23T05:54:35.266Z,99660.59
2022-10-23T05:59:38.310Z,99663.20
2022-10-23T06:04:41.270Z,99673.70
2022-10-23T06:09:44.174Z,99674.13
2022-10-23T06:14:47.466Z,99673.13
2022-10-23T06:19:50.868Z,99678.56
2022-10-23T06:24:54.128Z,99680.32
2022-10-23T06:29:57.053Z,99685.70
2022-10-23T06:34:59.955Z,99683.39
2022-10-23T06:40:02.898Z,99689.95
2022-10-23T06:45:07.337Z,99691.16
2022-10-23T06:50:13.092Z,99692.40
2022-10-23T06:55:19.294Z,99696.49
2022-10-23T07:00:22.246Z,99699.55
2022-10-23T07:05:25.146Z,99703.69
2022-10-23T07:10:28.076Z,99706.02
2022-10-23T07:15:31.303Z,99704.56
2022-10-23T07:20:34.607Z,99706.88
2022-10-23T07:25:38.063Z,99705.59
2022-10-23T07:30:41.500Z,99704.31
2022-10-23T07:35:46.260Z,99704.58
2022-10-23T07:40:49.232Z,99710.72
2022-10-23T07:45:53.222Z,99719.02
2022-10-23T07:51:01.954Z,99720.95
2022-10-23T07:56:16.732Z,99725.93
2022-10-23T08:01:27.906Z,99728.58
2022-10-23T08:06:31.058Z,99725.27
2022-10-23T08:11:35.830Z,99733.34
2022-10-23T08:16:39.510Z,99735.87
2022-10-23T08:21:42.445Z,99737.98
2022-10-23T08:26:45.355Z,99745.66
2022-10-23T08:31:48.252Z,99744.64
2022-10-23T08:36:51.452Z,99745.77
2022-10-23T08:41:54.674Z,99745.33
2022-10-23T08:47:18.610Z,99749.24
2022-10-23T08:52:46.076Z,99757.10
2022-10-23T08:58:33.001Z,99761.53
2022-10-23T09:03:35.969Z,99763.16
2022-10-23T09:08:52.237Z,99765.77
2022-10-23T09:14:35.768Z,99771.39
2022-10-23T09:19:38.953Z,99771.70
2022-10-23T09:24:44.728Z,99771.65
2022-10-23T09:29:55.185Z,99775.76
2022-10-23T09:34:58.144Z,99778.58
2022-10-23T09:40:25.367Z,99780.84
2022-10-23T09:45:34.843Z,99785.23
2022-10-23T09:50:38.004Z,99781.43
2022-10-23T09:55:40.940Z,99761.98
2022-10-23T10:00:49.254Z,99749.69
2022-10-23T10:06:01.452Z,99747.27
2022-10-23T10:11:37.633Z,99743.03
2022-10-23T10:17:04.653Z,99737.28
2022-10-23T10:22:34.359Z,99741.38
2022-10-23T10:27:46.898Z,99738.35
2022-10-23T10:33:02.751Z,99731.66
2022-10-23T10:38:41.491Z,99727.98
2022-10-23T10:43:53.351Z,99728.76
2022-10-23T10:49:20.968Z,99720.77
2022-10-23T10:54:46.539Z,99714.79
2022-10-23T10:59:53.487Z,99710.20
2022-10-23T11:05:20.726Z,99708.99
2022-10-23T11:10:23.866Z,99701.91
2022-10-23T11:15:41.180Z,99695.45
2022-10-23T11:21:14.716Z,99695.46
2022-10-23T11:27:02.132Z,99696.48
2022-10-23T11:32:43.701Z,99693.90
2022-10-23T11:37:58.381Z,99691.29
2022-10-23T11:43:01.357Z,99690.29
2022-10-23T11:48:23.798Z,99691.47
2022-10-23T11:53:46.965Z,99689.27
2022-10-23T11:58:56.556Z,99688.10
2022-10-23T12:04:38.607Z,99679.89
2022-10-23T12:09:46.466Z,99676.30
2022-10-23T12:14:51.407Z,99670.30
2022-10-23T12:20:19.830Z,99665.48
2022-10-23T12:25:53.436Z,99659.81
2022-10-23T12:31:17.806Z,99658.27
2022-10-23T12:36:39.413Z,99654.65
2022-10-23T12:41:42.964Z,99651.79
2022-10-23T12:46:51.523Z,99649.79
2022-10-23T12:52:18.433Z,99644.10
2022-10-23T12:57:30.380Z,99639.29
2022-10-23T13:02:34.378Z,99639.08
2022-10-23T13:07:44.695Z,99635.09
2022-10-23T13:13:00.764Z,99630.45
2022-10-23T13:18:07.095Z,99629.75
2022-10-23T13:23:36.136Z,99628.67
2022-10-23T13:28:44.531Z,99624.30
2022-10-23T13:34:05.401Z,99622.29
2022-10-23T13:39:11.568Z,99626.75
2022-10-23T13:44:18.131Z,99627.84
2022-10-23T13:49:21.139Z,99625.73
2022-10-23T13:59:35.860Z,99622.11
2022-10-23T14:04:38.604Z,99623.07
2022-10-23T14:09:41.620Z,99623.83
2022-10-23T14:14:44.528Z,99624.55
2022-10-23T14:19:47.609Z,99622.10
2022-10-23T14:24:50.764Z,99628.30
2022-10-23T14:29:53.667Z,99628.89
2022-10-23T14:34:56.539Z,99628.53
2022-10-23T14:39:59.840Z,99627.10
2022-10-23T14:45:03.317Z,99621.45
2022-10-23T14:50:07.258Z,99616.83
2022-10-23T14:55:10.165Z,99607.64
2022-10-23T15:00:13.799Z,99611.55
2022-10-23T15:05:17.273Z,99607.42
2022-10-23T15:10:20.233Z,99607.59
2022-10-23T15:15:23.952Z,99596.30
2022-10-23T15:20:27.325Z,99600.30
2022-10-23T15:25:30.111Z,99602.79
2022-10-23T15:30:33.676Z,99598.50
2022-10-23T15:35:36.648Z,99596.30
2022-10-23T15:40:39.870Z,99589.39
2022-10-23T15:45:43.283Z,99595.73
2022-10-23T15:50:46.046Z,99598.27
2022-10-23T15:55:48.970Z,99600.32
2022-10-23T16:00:51.894Z,99605.38
2022-10-23T16:05:54.799Z,99612.66
2022-10-23T16:10:59.727Z,99615.88
2022-10-23T16:16:06.368Z,99620.38
2022-10-23T16:21:37.794Z,99621.67
2022-10-23T16:26:41.074Z,99618.93
2022-10-23T16:31:43.991Z,99625.51
2022-10-23T16:36:47.512Z,99624.73
2022-10-23T16:41:50.460Z,99627.67
2022-10-23T16:46:56.597Z,99633.96
2022-10-23T16:51:59.506Z,99638.77
2022-10-23T16:57:02.387Z,99636.46
2022-10-23T17:02:05.492Z,99640.23
2022-10-23T17:07:08.573Z,99643.63
2022-10-23T17:12:11.542Z,99645.70
2022-10-23T17:17:14.499Z,99647.64
2022-10-23T17:22:17.468Z,99651.88
2022-10-23T17:27:20.451Z,99656.33
2022-10-23T17:32:23.365Z,99661.05
2022-10-23T17:37:26.342Z,99655.69
2022-10-23T17:42:29.695Z,99661.31
2022-10-23T17:47:32.598Z,99661.39
2022-10-23T17:52:36.536Z,99663.55
2022-10-23T17:57:39.935Z,99665.69
2022-10-23T18:02:42.687Z,99664.91
2022-10-23T18:07:45.984Z,99656.71
2022-10-23T18:12:49.121Z,99653.22
2022-10-23T18:17:52.048Z,99646.45
2022-10-23T18:22:55.055Z,99642.48
2022-10-23T18:28:01.751Z,99636.77
2022-10-23T18:33:05.516Z,99632.50
2022-10-23T18:38:09.881Z,99629.56
2022-10-23T18:43:15.170Z,99632.27
2022-10-23T18:48:23.129Z,99633.03
2022-10-23T18:53:26.153Z,99640.97
2022-10-23T18:58:29.080Z,99648.51
2022-10-23T19:03:33.517Z,99656.52
2022-10-23T19:08:39.093Z,99653.66
2022-10-23T19:13:43.025Z,99655.45
2022-10-23T19:18:51.308Z,99651.79
2022-10-23T19:23:54.243Z,99645.25
2022-10-23T19:28:58.202Z,99646.60
2022-10-23T19:34:01.445Z,99648.45
2022-10-23T19:39:04.493Z,99649.02
2022-10-23T19:44:07.636Z,99643.22
2022-10-23T19:49:11.093Z,99644.05
2022-10-23T19:54:14.099Z,99649.70
2022-10-23T19:59:18.535Z,99644.91
2022-10-23T20:04:21.416Z,99647.61
2022-10-23T20:09:24.363Z,99649.36
2022-10-23T20:14:27.579Z,99642.33
2022-10-23T20:19:30.574Z,99632.05
2022-10-23T20:24:33.667Z,99633.59
2022-10-23T20:29:36.949Z,99635.80
2022-10-23T20:34:40.059Z,99637.66
2022-10-23T20:39:43.668Z,99628.96
2022-10-23T20:44:46.587Z,99630.13
2022-10-23T20:49:49.503Z,99630.94
2022-10-23T20:54:52.416Z,99619.92
2022-10-23T20:59:58.297Z,99613.55
2022-10-23T21:05:01.178Z,99608.38
2022-10-23T21:10:05.502Z,99602.44
2022-10-23T21:15:09.622Z,99602.47
2022-10-23T21:20:12.537Z,99600.80
2022-10-23T21:25:15.559Z,99608.36
2022-10-23T21:30:18.606Z,99603.09
2022-10-23T21:35:22.142Z,99608.13
2022-10-23T21:40:26.439Z,99604.51
2022-10-23T21:45:29.647Z,99602.90
2022-10-23T21:50:32.590Z,99603.05
2022-10-23T21:55:35.501Z,99597.95
2022-10-23T22:00:38.422Z,99597.41
2022-10-23T22:05:41.325Z,99592.21
2022-10-23T22:10:44.252Z,99590.61
2022-10-23T22:15:47.184Z,99585.79
2022-10-23T22:20:50.126Z,99593.87
2022-10-23T22:25:53.162Z,99589.91
2022-10-23T22:30:56.062Z,99589.27
2022-10-23T22:36:03.596Z,99584.50
2022-10-23T22:41:07.487Z,99579.13
2022-10-23T22:46:14.001Z,99579.97
2022-10-23T22:51:19.909Z,99581.21
2022-10-23T22:56:27.150Z,99581.44
2022-10-23T23:01:39.466Z,99590.33
2022-10-23T23:06:42.499Z,99581.88
2022-10-23T23:11:52.052Z,99581.14
2022-10-23T23:16:55.359Z,99569.21
2022-10-23T23:21:59.356Z,99564.66
2022-10-23T23:27:02.366Z,99560.33
2022-10-23T23:32:06.322Z,99567.64
2022-10-23T23:37:09.238Z,99557.98
2022-10-23T23:42:12.129Z,99545.01
2022-10-23T23:47:15.068Z,99537.30
2022-10-23T23:52:18.052Z,99535.79
2022-10-23T23:57:20.980Z,99535.64
